Airfield :
LOGIN :

Register | Disclaimer

   EN    FR    IT 

 










Legend :    VFR   Marginal VFR   IFR   Intensive IFR   Very Intensive IFR
Visi :
Ceiling :
>= 8 km
>= 3000ft
5 to 8 km
1000 to 3000 ft
1500m to 5 km
500 to 1000 ft
800 to 1500m
200 to 500 ft
< 800m
< 200 ft
Symbols :   Thunderstorms  Fog  Heavy snow  Heavy precipitations  Wind > 20 kt
SIGMETs :     Misc.  Thunderstorms  Icing  Turbulence  Mountain Waves  Volcanic Ashes






- Airport Elevation : 1487 ft
- IATA code : MUC


EDDM - München Franz Josef Strauss

CURRENT METAR :
  • 092150Z 31001KT CAVOK 16/15 Q1018 NOSIG

EXPIRED METARs :
  • 092120Z VRB01KT CAVOK 17/15 Q1017 NOSIG
  • 092050Z 34001KT CAVOK 18/16 Q1017 NOSIG
  • 092020Z VRB01KT CAVOK 18/16 Q1017 NOSIG
  • 091950Z VRB02KT CAVOK 19/17 Q1018 NOSIG
  • 091920Z 08002KT CAVOK 20/17 Q1017 NOSIG

TAF TAF EDDM
Valid from the 09 at 18:00 until the 11 at 00:00 UTC


091700Z 0918/1024 09005KT CAVOK
BECMG 0918/0920 VRB02KT
BECMG 1008/1010 08008KT
BECMG 1017/1019 VRB03KT



MET'MAP, your aeronautical weather chart ! - Copyright ORBIFLY December 2007 - Disclaimer

ORBIFLY MET'MAP TEAM :

Programming & Development : Alexandra Zaïnal
Concept & original design : Baudouin d'Aumeries
Assistance for programming : Marc-Olivier Méhu
Technical & hardware support : Manuel Goepfert

Contact : metmap@orbifly.com




SOURCES & CREDITS :

   NOAA